Time;durP1;ratioP1;P1;durP2;ratioP2;P2;SDS_P1;SDS_P2;PMS_P1;PMS_P2;Temp;Humidity;BMP_temperature;BMP_pressure;BME280_temperature;BME280_humidity;BME280_pressure;Samples;Min_cycle;Max_cycle;Signal;HPM_P1;HPM_P2
2021/06/07 00:02:11;;;;;;;7.57;4.93;;;;;;;15.99;100.00;93289.09;4973927;28;20063;-82
2021/06/07 00:04:38;;;;;;;7.00;5.22;;;;;;;15.93;100.00;93279.69;4965991;28;20668;-83
2021/06/07 00:07:07;;;;;;;10.52;5.72;;;;;;;15.96;100.00;93286.97;4973566;28;20047;-82
2021/06/07 00:09:36;;;;;;;7.88;4.63;;;;;;;15.98;100.00;93294.50;4973785;28;20628;-82
2021/06/07 00:12:07;;;;;;;7.95;4.40;;;;;;;15.76;100.00;93264.16;4973594;28;20058;-82
2021/06/07 00:14:34;;;;;;;5.50;4.40;;;;;;;15.94;100.00;93290.81;4973928;28;20039;-82
2021/06/07 00:17:02;;;;;;;6.40;3.90;;;;;;;15.78;100.00;93267.28;4973727;28;20050;-82
2021/06/07 00:19:30;;;;;;;7.72;5.22;;;;;;;15.94;100.00;93294.22;4973505;28;20498;-82
2021/06/07 00:21:57;;;;;;;6.80;4.53;;;;;;;15.96;100.00;93292.16;4973526;28;20039;-83
2021/06/07 00:24:24;;;;;;;8.32;4.55;;;;;;;16.00;100.00;93284.69;4973268;28;20089;-83
2021/06/07 00:26:52;;;;;;;6.38;4.30;;;;;;;15.98;100.00;93282.31;4973414;28;20046;-82
2021/06/07 00:29:18;;;;;;;5.78;4.15;;;;;;;15.99;100.00;93280.53;4973696;28;20110;-82
2021/06/07 00:31:45;;;;;;;10.25;4.47;;;;;;;15.96;100.00;93268.84;4973640;28;20047;-84
2021/06/07 00:34:12;;;;;;;8.50;5.38;;;;;;;16.01;100.00;93281.84;4973565;28;20043;-82
2021/06/07 00:36:39;;;;;;;6.45;5.03;;;;;;;15.99;100.00;93280.53;4973223;28;20051;-83
2021/06/07 00:39:08;;;;;;;6.35;4.68;;;;;;;15.94;100.00;93268.31;4973270;28;20043;-82
2021/06/07 00:41:35;;;;;;;8.95;5.20;;;;;;;15.96;100.00;93278.44;4973358;28;20054;-82
2021/06/07 00:44:08;;;;;;;7.07;4.90;;;;;;;15.99;100.00;93275.34;4973307;28;20424;-82
2021/06/07 00:46:34;;;;;;;7.22;5.50;;;;;;;15.99;100.00;93276.13;4973102;28;20050;-82
2021/06/07 00:49:01;;;;;;;7.28;4.80;;;;;;;16.01;100.00;93276.66;4973005;28;20046;-82
2021/06/07 00:51:28;;;;;;;7.53;5.10;;;;;;;16.05;100.00;93274.38;4972718;28;20139;-82
2021/06/07 00:53:54;;;;;;;6.28;4.25;;;;;;;16.03;100.00;93281.63;4973385;28;20042;-82
2021/06/07 00:56:21;;;;;;;6.45;4.57;;;;;;;16.00;100.00;93276.91;4972814;28;20054;-82
2021/06/07 00:58:49;;;;;;;8.07;5.03;;;;;;;16.03;100.00;93276.44;4973393;28;20053;-82
2021/06/07 01:01:20;;;;;;;6.95;5.22;;;;;;;15.99;100.00;93273.56;4973014;28;20046;-82
2021/06/07 01:03:49;;;;;;;6.53;5.05;;;;;;;15.93;100.00;93258.97;4972846;28;20051;-82
2021/06/07 01:06:15;;;;;;;9.25;5.38;;;;;;;15.93;100.00;93258.97;4973049;28;20419;-81
2021/06/07 01:08:42;;;;;;;7.95;4.88;;;;;;;15.88;100.00;93251.88;4972481;28;20515;-82
2021/06/07 01:11:09;;;;;;;8.20;5.82;;;;;;;16.01;100.00;93268.09;4972639;28;20102;-82
2021/06/07 01:13:36;;;;;;;7.60;4.57;;;;;;;16.01;100.00;93271.50;4972914;28;20051;-81
2021/06/07 01:16:04;;;;;;;7.85;4.93;;;;;;;16.00;100.00;93267.34;4972473;28;20039;-81
2021/06/07 01:18:33;;;;;;;9.05;5.70;;;;;;;16.03;100.00;93268.66;4972774;28;20042;-81
2021/06/07 01:21:01;;;;;;;9.07;5.47;;;;;;;16.03;100.00;93271.25;4972343;28;20050;-81
2021/06/07 01:23:29;;;;;;;7.22;5.55;;;;;;;16.00;100.00;93262.16;4972519;28;20097;-81
2021/06/07 01:25:58;;;;;;;8.55;5.15;;;;;;;16.02;100.00;93259.34;4972386;28;20054;-81
2021/06/07 01:28:25;;;;;;;8.70;5.72;;;;;;;16.00;100.00;93258.78;4972562;28;20055;-81
2021/06/07 01:30:54;;;;;;;7.35;5.18;;;;;;;15.99;100.00;93259.81;4972379;28;20479;-81
2021/06/07 01:33:22;;;;;;;6.55;4.75;;;;;;;15.96;100.00;93255.13;4972143;28;20483;-81
2021/06/07 01:35:49;;;;;;;7.45;5.40;;;;;;;16.00;100.00;93264.75;4972437;28;20378;-81
2021/06/07 01:38:17;;;;;;;7.95;4.80;;;;;;;16.03;100.00;93263.47;4972258;28;20046;-81
2021/06/07 01:40:50;;;;;;;8.52;5.90;;;;;;;16.00;100.00;93256.19;4972396;28;20054;-81
2021/06/07 01:43:16;;;;;;;12.88;5.53;;;;;;;16.01;100.00;93257.75;4972070;28;20057;-80
2021/06/07 01:45:46;;;;;;;7.50;5.30;;;;;;;16.00;100.00;93262.16;4972045;28;20102;-80
2021/06/07 01:48:15;;;;;;;7.22;5.00;;;;;;;15.95;100.00;93261.31;4971998;28;20046;-80
2021/06/07 01:50:42;;;;;;;5.90;4.65;;;;;;;15.90;100.00;93259.41;4971778;28;20490;-81
2021/06/07 01:53:10;;;;;;;7.28;5.68;;;;;;;15.95;100.00;93261.31;4972095;28;20043;-80
2021/06/07 01:55:39;;;;;;;7.75;5.38;;;;;;;15.93;100.00;93256.38;4972134;28;20497;-80
2021/06/07 01:58:08;;;;;;;9.63;5.65;;;;;;;15.95;100.00;93259.50;4972199;28;20050;-80
2021/06/07 02:00:40;;;;;;;8.05;4.65;;;;;;;15.93;100.00;93266.75;4971730;28;20082;-80
2021/06/07 02:03:08;;;;;;;8.50;5.38;;;;;;;15.90;100.00;93262.00;4971085;28;20043;-80
2021/06/07 02:05:38;;;;;;;8.10;5.25;;;;;;;15.88;100.00;93259.66;4971620;28;20038;-80
2021/06/07 02:08:06;;;;;;;7.28;5.10;;;;;;;15.84;100.00;93255.19;4971912;28;20057;-81
2021/06/07 02:10:36;;;;;;;7.65;5.15;;;;;;;15.85;100.00;93254.16;4971774;28;20051;-80
2021/06/07 02:13:03;;;;;;;12.32;5.95;;;;;;;15.86;100.00;93255.72;4971653;28;20050;-80
2021/06/07 02:15:31;;;;;;;6.95;4.70;;;;;;;15.86;100.00;93261.72;4971467;28;20097;-80
2021/06/07 02:18:00;;;;;;;7.88;5.05;;;;;;;15.85;100.00;93267.13;4971744;28;20047;-80
2021/06/07 02:20:27;;;;;;;6.93;5.63;;;;;;;15.85;100.00;93259.34;4971365;28;20062;-80
2021/06/07 02:22:54;;;;;;;7.45;5.28;;;;;;;15.77;100.00;93243.22;4971701;28;20057;-80
2021/06/07 02:25:22;;;;;;;9.05;6.00;;;;;;;15.81;100.00;93251.28;4971511;28;20042;-80
2021/06/07 02:27:49;;;;;;;8.02;5.47;;;;;;;15.86;100.00;93256.53;4971627;28;20043;-80
2021/06/07 02:30:20;;;;;;;8.20;5.70;;;;;;;15.79;100.00;93242.19;4971808;28;20090;-83
2021/06/07 02:32:48;;;;;;;8.52;5.13;;;;;;;15.88;100.00;93248.53;4971144;28;20050;-80
2021/06/07 02:35:17;;;;;;;7.20;5.20;;;;;;;15.90;100.00;93252.44;4971280;28;20046;-81
2021/06/07 02:37:44;;;;;;;8.90;5.90;;;;;;;15.89;100.00;93258.63;4971247;28;20046;-81
2021/06/07 02:40:13;;;;;;;8.10;5.75;;;;;;;15.77;100.00;93248.41;4970974;28;20043;-81
2021/06/07 02:42:41;;;;;;;8.85;5.25;;;;;;;15.81;100.00;93255.66;4971307;28;20042;-80
2021/06/07 02:45:12;;;;;;;7.07;5.20;;;;;;;15.84;100.00;93253.38;4971292;28;20047;-81
2021/06/07 02:47:40;;;;;;;7.90;5.80;;;;;;;15.86;100.00;93268.69;4971238;28;20046;-80
2021/06/07 02:50:10;;;;;;;7.40;5.20;;;;;;;15.86;100.00;93271.28;4971276;28;20050;-81
2021/06/07 02:52:46;;;;;;;10.32;5.45;;;;;;;15.86;100.00;93269.47;4971156;28;20042;-81
2021/06/07 02:55:13;;;;;;;7.53;5.00;;;;;;;15.86;100.00;93263.50;4970872;28;20047;-81
2021/06/07 02:57:40;;;;;;;8.40;6.13;;;;;;;15.85;100.00;93270.50;4970983;28;20402;-81
2021/06/07 03:00:08;;;;;;;8.88;5.85;;;;;;;15.85;100.00;93267.91;4970772;28;20046;-81
2021/06/07 03:02:34;;;;;;;8.63;5.90;;;;;;;15.80;100.00;93259.28;4971277;28;20050;-80
2021/06/07 03:05:00;;;;;;;8.20;5.68;;;;;;;15.84;100.00;93271.50;4971030;28;20057;-81
2021/06/07 03:07:28;;;;;;;15.38;6.38;;;;;;;15.86;100.00;93263.50;4971014;28;20054;-81
2021/06/07 03:09:54;;;;;;;8.32;5.57;;;;;;;15.79;100.00;93258.53;4970594;28;20538;-81
2021/06/07 03:12:21;;;;;;;8.50;5.95;;;;;;;15.83;100.00;93264.78;4970696;28;20051;-81
2021/06/07 03:14:47;;;;;;;8.30;5.25;;;;;;;15.87;100.00;93273.63;4970607;28;20368;-80
2021/06/07 03:17:13;;;;;;;7.43;5.95;;;;;;;15.88;100.00;93271.84;4970889;28;20109;-81
2021/06/07 03:19:40;;;;;;;7.22;5.57;;;;;;;15.88;100.00;93264.84;4970567;28;20047;-81
2021/06/07 03:22:06;;;;;;;10.75;5.88;;;;;;;15.89;100.00;93273.41;4970767;28;20042;-81
2021/06/07 03:24:34;;;;;;;8.25;5.47;;;;;;;15.88;100.00;93274.44;4970477;28;20053;-81
2021/06/07 03:27:03;;;;;;;8.10;5.60;;;;;;;15.92;100.00;93270.31;4970324;28;20051;-81
2021/06/07 03:29:29;;;;;;;8.25;4.95;;;;;;;15.91;100.00;93279.09;4970441;28;20550;-81
2021/06/07 03:31:55;;;;;;;7.30;5.65;;;;;;;15.89;100.00;93263.03;4970453;28;20102;-81
2021/06/07 03:34:21;;;;;;;8.85;5.93;;;;;;;15.95;100.00;93274.25;4970240;28;20050;-80
2021/06/07 03:36:48;;;;;;;8.15;6.03;;;;;;;15.99;100.00;93275.34;4970630;28;20043;-81
2021/06/07 03:39:14;;;;;;;11.35;5.95;;;;;;;16.06;100.00;93277.75;4970318;28;20054;-81
2021/06/07 03:41:42;;;;;;;6.70;5.35;;;;;;;15.94;100.00;93257.16;4970456;28;20055;-81
2021/06/07 03:44:08;;;;;;;8.75;6.13;;;;;;;16.08;100.00;93273.13;4970586;28;20054;-81
2021/06/07 03:46:35;;;;;;;10.90;6.25;;;;;;;15.92;100.00;93249.59;4970564;28;20043;-80
2021/06/07 03:49:01;;;;;;;9.98;5.97;;;;;;;16.17;100.00;93277.63;4970334;28;20051;-80
2021/06/07 03:51:27;;;;;;;10.85;5.93;;;;;;;16.16;100.00;93273.47;4970213;28;20047;-80
2021/06/07 03:53:54;;;;;;;8.88;5.90;;;;;;;16.17;100.00;93272.44;4970201;28;20510;-80
2021/06/07 03:56:20;;;;;;;10.02;5.75;;;;;;;16.22;100.00;93263.16;4970003;28;20046;-80
2021/06/07 03:58:48;;;;;;;10.23;7.50;;;;;;;16.23;100.00;93268.09;4970117;28;20131;-80
2021/06/07 04:01:14;;;;;;;13.88;6.72;;;;;;;16.30;100.00;93267.91;4970309;28;20066;-80
2021/06/07 04:03:41;;;;;;;9.38;6.80;;;;;;;16.39;100.00;93273.44;4969966;28;20492;-81
2021/06/07 04:06:07;;;;;;;8.50;6.22;;;;;;;16.43;100.00;93272.72;4970432;28;20047;-80
2021/06/07 04:08:33;;;;;;;8.52;6.63;;;;;;;16.53;100.00;93273.84;4970371;28;20402;-80
2021/06/07 04:11:00;;;;;;;8.23;6.05;;;;;;;16.61;100.00;93275.22;4970223;28;20069;-80
2021/06/07 04:13:26;;;;;;;9.20;6.32;;;;;;;16.70;100.00;93271.13;4970397;28;20091;-81
2021/06/07 04:15:54;;;;;;;12.32;7.95;;;;;;;16.75;100.00;93268.59;4970157;28;20051;-81
2021/06/07 04:18:20;;;;;;;12.00;7.47;;;;;;;16.68;100.00;93257.63;4969958;28;20047;-81
2021/06/07 04:20:47;;;;;;;11.18;7.18;;;;;;;16.72;100.00;93261.31;4970008;28;20054;-81
2021/06/07 04:23:13;;;;;;;8.50;6.35;;;;;;;16.83;100.00;93265.56;4970181;28;20047;-81
2021/06/07 04:25:39;;;;;;;10.57;6.68;;;;;;;17.00;100.00;93279.41;4969809;28;20530;-81
2021/06/07 04:28:06;;;;;;;9.75;6.22;;;;;;;17.06;100.00;93275.88;4972751;28;20062;-81
2021/06/07 04:30:33;;;;;;;8.48;6.13;;;;;;;17.08;100.00;93264.22;4973373;28;20057;-81
2021/06/07 04:33:03;;;;;;;16.95;7.75;;;;;;;17.19;100.00;93282.44;4973201;28;20051;-81
2021/06/07 04:35:30;;;;;;;9.93;6.78;;;;;;;17.16;100.00;93272.56;4973573;28;20047;-81
2021/06/07 04:37:56;;;;;;;10.70;7.03;;;;;;;17.25;100.00;93278.09;4973250;28;20042;-81
2021/06/07 04:40:26;;;;;;;9.00;6.13;;;;;;;17.35;100.00;93276.34;4973229;28;20435;-81
2021/06/07 04:42:53;;;;;;;9.30;6.95;;;;;;;17.41;100.00;93291.94;4973299;28;20042;-81
2021/06/07 04:45:21;;;;;;;9.27;6.18;;;;;;;17.35;100.00;93265.94;4972958;28;20057;-81
2021/06/07 04:47:48;;;;;;;8.88;6.65;;;;;;;17.30;100.00;93252.13;4973380;28;20396;-81
2021/06/07 04:50:18;;;;;;;8.30;6.15;;;;;;;17.62;100.00;93291.03;4973259;28;20057;-81
2021/06/07 04:52:59;;;;;;;8.77;6.10;;;;;;;17.67;100.00;93292.09;4973012;28;20130;-81
2021/06/07 04:55:31;;;;;;;10.13;6.65;;;;;;;17.67;100.00;93281.72;4972967;28;20467;-81
2021/06/07 04:57:59;;;;;;;11.88;6.18;;;;;;;17.82;100.00;93301.78;4972975;28;20483;-81
2021/06/07 05:00:27;;;;;;;9.70;7.10;;;;;;;17.87;100.00;93292.19;4972754;28;20054;-81
2021/06/07 05:02:54;;;;;;;9.02;6.07;;;;;;;17.98;100.00;93292.25;4973158;28;20391;-82
2021/06/07 05:05:22;;;;;;;9.27;6.68;;;;;;;18.13;99.47;93297.53;4972652;28;20057;-81
2021/06/07 05:07:48;;;;;;;10.52;6.20;;;;;;;18.23;98.84;93296.03;4973039;28;20399;-81
2021/06/07 05:10:15;;;;;;;8.57;6.03;;;;;;;18.35;98.03;93301.78;4972965;28;20050;-81
2021/06/07 05:12:42;;;;;;;10.18;5.93;;;;;;;18.43;98.60;93298.66;4972611;28;20046;-81
2021/06/07 05:15:10;;;;;;;9.20;6.90;;;;;;;18.50;98.15;93298.44;4972885;28;20050;-81
2021/06/07 05:17:36;;;;;;;9.15;6.90;;;;;;;18.46;97.75;93281.75;4972885;28;20053;-81
2021/06/07 05:20:05;;;;;;;8.05;5.30;;;;;;;18.69;96.64;93298.72;4972437;28;20051;-82
2021/06/07 05:22:33;;;;;;;7.60;5.88;;;;;;;18.81;97.05;93301.09;4972745;28;20047;-81
2021/06/07 05:24:59;;;;;;;9.02;6.22;;;;;;;18.93;96.06;93303.44;4972375;28;20043;-82
2021/06/07 05:27:26;;;;;;;11.23;7.72;;;;;;;18.99;94.43;93296.41;4972690;28;20376;-81
2021/06/07 05:29:52;;;;;;;9.05;6.05;;;;;;;19.11;93.75;93303.97;4972539;28;20046;-81
2021/06/07 05:32:19;;;;;;;11.77;6.45;;;;;;;19.13;93.28;93301.91;4972528;28;20058;-81
2021/06/07 05:34:45;;;;;;;8.95;5.55;;;;;;;19.04;94.17;93295.66;4972486;28;20050;-81
2021/06/07 05:37:12;;;;;;;10.30;6.50;;;;;;;19.23;93.36;93308.94;4972254;28;20431;-80
2021/06/07 05:39:39;;;;;;;10.57;6.32;;;;;;;19.40;92.42;93300.06;4972177;28;20047;-80
2021/06/07 05:42:07;;;;;;;8.63;6.03;;;;;;;19.49;92.82;93309.69;4972003;28;20042;-80
2021/06/07 05:44:33;;;;;;;9.63;6.28;;;;;;;19.52;91.73;93311.00;4972094;28;20058;-81
2021/06/07 05:47:00;;;;;;;10.30;5.93;;;;;;;19.67;90.58;93314.63;4972297;28;20047;-81
2021/06/07 05:49:26;;;;;;;10.90;6.63;;;;;;;19.76;89.42;93310.41;4971933;28;20077;-80
2021/06/07 05:51:53;;;;;;;18.45;6.32;;;;;;;19.98;88.73;93311.97;4972010;28;20043;-81
2021/06/07 05:54:19;;;;;;;10.40;7.22;;;;;;;20.11;88.43;93308.00;4971991;28;20061;-80
2021/06/07 05:56:53;;;;;;;13.63;7.00;;;;;;;20.28;87.44;93308.44;4971868;28;20050;-81
2021/06/07 05:59:19;;;;;;;13.60;6.57;;;;;;;20.26;85.71;93302.72;4971955;28;20043;-81
2021/06/07 06:01:46;;;;;;;11.88;6.90;;;;;;;19.93;85.35;93310.13;4971521;28;20053;-81
2021/06/07 06:04:12;;;;;;;10.95;6.85;;;;;;;19.91;87.21;93304.41;4971723;28;20058;-81
2021/06/07 06:06:39;;;;;;;10.90;6.68;;;;;;;19.32;86.27;93281.34;4971613;28;20562;-81
2021/06/07 06:09:06;;;;;;;12.38;7.18;;;;;;;19.65;86.35;93312.28;4971580;28;20505;-80
2021/06/07 06:11:32;;;;;;;11.40;6.82;;;;;;;19.80;86.67;93305.47;4971525;28;20482;-80
2021/06/07 06:14:01;;;;;;;11.77;6.20;;;;;;;19.87;86.59;93304.13;4971650;28;20498;-80
2021/06/07 06:16:27;;;;;;;10.88;7.28;;;;;;;20.13;86.40;93305.91;4971751;28;20475;-81
2021/06/07 06:18:53;;;;;;;19.35;6.25;;;;;;;20.24;86.24;93304.84;4971681;28;20058;-81
2021/06/07 06:21:20;;;;;;;11.05;6.90;;;;;;;20.48;85.68;93306.00;4971485;28;20050;-81
2021/06/07 06:23:46;;;;;;;11.05;7.38;;;;;;;20.70;85.03;93310.88;4971635;28;20051;-81
2021/06/07 06:26:13;;;;;;;9.88;6.72;;;;;;;20.97;83.97;93312.28;4971319;28;20434;-81
2021/06/07 06:28:39;;;;;;;9.45;6.18;;;;;;;21.12;83.29;93300.94;4971395;28;20051;-81
2021/06/07 06:31:07;;;;;;;9.27;6.55;;;;;;;21.39;82.49;93315.38;4971240;28;20039;-81
2021/06/07 06:33:34;;;;;;;10.85;6.28;;;;;;;21.52;80.97;93305.31;4971533;28;20042;-80
2021/06/07 06:36:01;;;;;;;10.65;7.20;;;;;;;21.75;79.71;93307.22;4971272;28;20054;-80
2021/06/07 06:38:27;;;;;;;9.05;5.38;;;;;;;21.80;73.43;93316.06;4971460;28;20043;-81
2021/06/07 06:40:54;;;;;;;11.32;5.18;;;;;;;22.03;75.90;93311.88;4970995;28;20511;-80
2021/06/07 06:43:20;;;;;;;9.55;5.18;;;;;;;22.21;75.67;93310.38;4971234;28;20061;-80
2021/06/07 06:45:47;;;;;;;6.72;5.13;;;;;;;22.10;70.33;93303.69;4971445;28;20050;-81
2021/06/07 06:48:15;;;;;;;5.50;4.50;;;;;;;22.26;69.73;93305.06;4971153;28;20043;-80
2021/06/07 06:50:42;;;;;;;5.28;3.78;;;;;;;22.32;68.53;93311.03;4970504;28;20047;-80
2021/06/07 06:53:12;;;;;;;7.28;4.20;;;;;;;22.35;71.14;93305.22;4971239;28;20046;-81
2021/06/07 06:55:39;;;;;;;4.90;3.70;;;;;;;21.81;70.15;93297.50;4971028;28;20051;-81
2021/06/07 06:58:08;;;;;;;7.15;4.70;;;;;;;21.81;70.50;93310.56;4971198;28;20051;-81
2021/06/07 07:00:36;;;;;;;6.85;4.70;;;;;;;21.87;70.92;93306.03;4972929;28;20584;-81
2021/06/07 07:03:03;;;;;;;7.07;4.43;;;;;;;21.16;70.44;93281.03;4988487;28;20402;-81
2021/06/07 07:05:31;;;;;;;6.72;5.10;;;;;;;20.77;72.79;93279.22;4989338;28;20053;-81
2021/06/07 07:07:58;;;;;;;7.55;5.32;;;;;;;21.02;73.40;93299.19;4989978;28;20486;-81
2021/06/07 07:10:25;;;;;;;5.68;4.50;;;;;;;21.25;73.69;93289.09;4990192;28;20046;-81
2021/06/07 07:12:51;;;;;;;7.75;4.30;;;;;;;20.95;73.41;93306.53;4990200;28;20093;-81
2021/06/07 07:15:19;;;;;;;5.00;3.60;;;;;;;21.40;71.75;93311.69;4989914;28;20046;-80
2021/06/07 07:17:45;;;;;;;7.95;4.82;;;;;;;21.62;70.71;93308.59;4989914;28;20101;-81
2021/06/07 07:20:12;;;;;;;9.23;4.72;;;;;;;21.93;70.12;93304.94;4989940;28;20410;-80
2021/06/07 07:22:40;;;;;;;6.35;4.82;;;;;;;22.08;69.64;93300.59;4990207;28;20050;-81
2021/06/07 07:25:07;;;;;;;7.22;4.53;;;;;;;21.55;68.86;93304.75;4989792;28;20039;-81
2021/06/07 07:27:36;;;;;;;6.47;4.72;;;;;;;21.74;72.05;93303.03;4990042;28;20046;-80
2021/06/07 07:30:05;;;;;;;5.53;4.30;;;;;;;21.40;70.40;93316.13;4989466;28;20069;-81
2021/06/07 07:32:31;;;;;;;6.28;4.57;;;;;;;21.47;69.81;93312.16;4989978;28;20050;-80
2021/06/07 07:34:58;;;;;;;5.88;4.28;;;;;;;21.71;69.36;93308.81;4986284;28;20046;-81
2021/06/07 07:37:24;;;;;;;7.57;4.38;;;;;;;21.78;72.46;93316.34;4989793;28;20043;-80
2021/06/07 07:39:52;;;;;;;9.60;4.50;;;;;;;21.85;69.83;93316.00;4989267;28;20139;-80
2021/06/07 07:42:18;;;;;;;6.22;3.80;;;;;;;21.99;69.40;93314.28;4985921;28;20058;-80
2021/06/07 07:44:45;;;;;;;7.25;4.05;;;;;;;21.49;68.72;93296.97;4987907;28;20401;-81
2021/06/07 07:47:11;;;;;;;5.30;3.83;;;;;;;21.68;69.73;93317.19;4988613;28;20133;-80
2021/06/07 07:49:38;;;;;;;5.05;3.88;;;;;;;21.87;67.55;93319.13;4989686;28;20076;-80
2021/06/07 07:52:07;;;;;;;6.82;4.43;;;;;;;21.49;66.94;93322.31;4988387;28;20042;-81
2021/06/07 07:54:34;;;;;;;5.45;3.90;;;;;;;21.66;68.05;93321.13;4989521;28;20494;-81
2021/06/07 07:57:03;;;;;;;7.60;5.38;;;;;;;21.76;69.97;93326.28;4986341;28;20097;-81
2021/06/07 07:59:29;;;;;;;4.28;3.63;;;;;;;21.87;67.14;93319.91;4987739;28;20054;-81
2021/06/07 08:01:55;;;;;;;5.75;4.18;;;;;;;21.91;67.03;93324.56;4989327;28;20054;-80
2021/06/07 08:04:22;;;;;;;6.68;4.53;;;;;;;22.20;68.17;93321.91;4992257;28;20042;-80
2021/06/07 08:06:48;;;;;;;5.68;3.42;;;;;;;22.42;65.19;93324.00;4993320;28;20054;-80
2021/06/07 08:09:15;;;;;;;6.05;4.32;;;;;;;22.63;66.24;93308.03;4993193;28;20073;-80
2021/06/07 08:11:47;;;;;;;5.72;3.92;;;;;;;22.96;64.47;93320.44;4993041;28;20113;-81
2021/06/07 08:14:17;;;;;;;7.05;3.80;;;;;;;22.73;62.98;93325.44;4993231;28;20549;-81
2021/06/07 08:16:43;;;;;;;7.15;3.90;;;;;;;22.79;65.86;93329.56;4993635;28;20051;-81
2021/06/07 08:19:10;;;;;;;5.95;4.25;;;;;;;22.81;63.96;93324.81;4992829;28;20046;-81
2021/06/07 08:21:36;;;;;;;5.22;3.55;;;;;;;23.23;64.77;93319.75;4985222;28;20598;-81
2021/06/07 08:24:03;;;;;;;5.13;3.78;;;;;;;23.42;62.01;93313.69;4992537;28;20049;-81
2021/06/07 08:26:29;;;;;;;6.10;4.10;;;;;;;23.09;61.55;93290.88;4992535;28;20063;-81
2021/06/07 08:28:56;;;;;;;5.78;4.38;;;;;;;23.21;62.24;93329.75;4993008;28;20061;-81
2021/06/07 08:31:24;;;;;;;4.35;3.45;;;;;;;22.99;61.41;93325.09;4990698;28;20049;-81
2021/06/07 08:33:50;;;;;;;5.28;4.03;;;;;;;23.18;62.10;93322.44;4989977;28;20055;-80
2021/06/07 08:36:16;;;;;;;7.47;3.97;;;;;;;23.28;63.35;93318.88;4988938;28;20161;-80
2021/06/07 08:38:43;;;;;;;5.85;3.92;;;;;;;23.55;64.51;93321.91;4988687;28;20046;-81
2021/06/07 08:41:10;;;;;;;6.85;4.78;;;;;;;23.53;64.82;93314.31;4988831;28;20427;-80
2021/06/07 08:43:36;;;;;;;12.95;4.85;;;;;;;23.67;64.66;93318.81;4988988;28;20046;-80
2021/06/07 08:46:04;;;;;;;8.90;4.88;;;;;;;23.72;64.02;93321.34;4989097;28;20070;-79
2021/06/07 08:48:32;;;;;;;6.57;4.68;;;;;;;23.79;64.18;93323.59;4988923;28;20050;-80
2021/06/07 08:51:01;;;;;;;7.25;4.25;;;;;;;23.88;63.97;93313.97;4988848;28;20066;-80
2021/06/07 08:53:28;;;;;;;16.30;5.00;;;;;;;23.88;64.10;93301.63;4988753;28;20047;-80
2021/06/07 08:55:54;;;;;;;6.47;4.38;;;;;;;23.93;64.26;93310.47;4988779;28;20101;-79
2021/06/07 08:58:21;;;;;;;7.97;4.00;;;;;;;24.10;63.25;93313.34;4988679;28;20477;-79
2021/06/07 09:00:47;;;;;;;6.78;4.63;;;;;;;24.31;63.39;93323.44;4988378;28;20054;-80
2021/06/07 09:03:15;;;;;;;5.22;3.80;;;;;;;24.43;61.74;93309.78;4988407;28;20524;-80
2021/06/07 09:05:44;;;;;;;8.02;3.90;;;;;;;24.34;62.82;93307.09;4988394;28;20066;-80
2021/06/07 09:08:12;;;;;;;6.45;3.72;;;;;;;24.35;62.48;93310.50;4988786;28;20038;-80
2021/06/07 09:10:42;;;;;;;6.15;4.30;;;;;;;24.29;63.15;93309.81;4988570;28;20326;-80
2021/06/07 09:13:10;;;;;;;5.82;4.25;;;;;;;24.16;63.53;93282.50;4987922;28;20054;-79
2021/06/07 09:15:41;;;;;;;6.82;4.60;;;;;;;24.17;64.27;93299.81;4988336;28;20097;-80
2021/06/07 09:18:09;;;;;;;5.47;3.75;;;;;;;24.20;64.06;93303.72;4988391;28;20442;-79
2021/06/07 09:20:36;;;;;;;7.57;4.50;;;;;;;24.14;64.62;93297.78;4988024;28;20046;-79
2021/06/07 09:23:07;;;;;;;7.05;4.35;;;;;;;23.99;64.29;93307.47;4988283;28;20061;-80
2021/06/07 09:25:35;;;;;;;6.18;4.07;;;;;;;23.92;65.08;93306.31;4988176;28;20482;-80
2021/06/07 09:28:18;;;;;;;5.45;4.60;;;;;;;23.71;65.80;93302.22;4988212;28;20050;-80
2021/06/07 09:30:48;;;;;;;7.82;4.40;;;;;;;23.73;66.31;93315.03;4988132;28;20053;-80
2021/06/07 09:33:30;;;;;;;8.05;4.40;;;;;;;23.80;65.71;93306.78;4987951;28;20046;-80
2021/06/07 09:36:23;;;;;;;8.85;3.60;;;;;;;23.58;67.05;93305.59;4987914;28;20573;-79
2021/06/07 09:39:09;;;;;;;6.50;4.10;;;;;;;23.27;68.30;93308.72;4981878;28;20042;-80
2021/06/07 09:41:50;;;;;;;5.50;3.80;;;;;;;23.07;68.83;93300.88;4988447;28;20071;-80
2021/06/07 09:44:38;;;;;;;5.63;3.75;;;;;;;22.96;68.32;93313.34;4987619;28;20046;-80
2021/06/07 09:47:17;;;;;;;5.30;3.33;;;;;;;22.58;68.13;93281.94;4987822;28;20042;-81
2021/06/07 09:49:46;;;;;;;4.53;3.47;;;;;;;22.59;69.35;93304.41;4987030;28;20049;-80
2021/06/07 09:52:15;;;;;;;4.60;3.25;;;;;;;22.26;70.34;93284.16;4984597;28;20402;-79
2021/06/07 09:54:43;;;;;;;4.07;2.70;;;;;;;22.13;68.47;93311.00;4986471;28;20047;-79
2021/06/07 09:57:10;;;;;;;6.53;3.60;;;;;;;22.11;69.17;93313.09;4987416;28;20083;-80
2021/06/07 09:59:37;;;;;;;5.43;3.67;;;;;;;22.08;69.78;93316.28;4987412;28;20056;-79
2021/06/07 10:02:14;;;;;;;4.82;3.72;;;;;;;21.89;71.95;93306.53;4987119;28;20094;-80
2021/06/07 10:04:58;;;;;;;7.88;4.22;;;;;;;21.70;73.20;93307.25;4987232;28;20069;-80
2021/06/07 10:07:26;;;;;;;4.65;3.80;;;;;;;21.51;75.11;93325.44;4987209;28;20523;-83
2021/06/07 10:10:14;;;;;;;5.32;3.72;;;;;;;21.38;77.80;93324.22;4987253;28;20061;-83
2021/06/07 10:12:42;;;;;;;5.22;3.25;;;;;;;20.71;81.67;93328.09;4986999;28;20058;-83
2021/06/07 10:15:29;;;;;;;4.45;2.72;;;;;;;19.79;86.78;93306.50;4987333;28;20049;-82
2021/06/07 10:17:56;;;;;;;4.20;3.08;;;;;;;19.52;91.65;93331.84;4987520;28;20050;-82
2021/06/07 10:23:18;;;;;;;4.38;2.88;;;;;;;18.82;93.91;93304.47;4991315;28;20061;-85
2021/06/07 10:25:46;;;;;;;5.15;3.60;;;;;;;18.91;95.04;93289.91;4989505;28;20470;-84
2021/06/07 10:28:15;;;;;;;5.72;3.17;;;;;;;18.82;95.99;93315.66;4973879;28;20382;-86
2021/06/07 10:30:44;;;;;;;5.35;3.47;;;;;;;18.51;99.30;93260.19;4991010;28;20050;-83
2021/06/07 10:33:28;;;;;;;4.60;3.45;;;;;;;19.08;100.00;93328.72;4987074;28;20054;-85
2021/06/07 10:35:54;;;;;;;4.20;3.03;;;;;;;18.78;100.00;93285.19;4981592;28;20053;-84
2021/06/07 10:38:32;;;;;;;5.88;3.22;;;;;;;18.45;96.36;93334.03;4988444;28;20827;-84
2021/06/07 10:41:21;;;;;;;5.03;3.22;;;;;;;18.94;98.00;93330.25;4965507;28;20051;-85
2021/06/07 10:43:52;;;;;;;6.63;2.95;;;;;;;18.93;100.00;93303.44;4966176;28;20046;-86
2021/06/07 10:46:27;;;;;;;5.65;3.42;;;;;;;19.29;97.90;93320.91;4985591;28;20045;-84
2021/06/07 10:48:54;;;;;;;4.82;3.60;;;;;;;19.09;95.90;93306.88;4986262;28;20434;-85
2021/06/07 10:51:38;;;;;;;4.93;3.15;;;;;;;19.14;95.62;93274.84;4986352;28;20386;-85
2021/06/07 10:54:38;;;;;;;4.07;3.03;;;;;;;19.51;95.00;93280.78;4984850;28;20050;-86
2021/06/07 10:57:35;;;;;;;4.93;3.70;;;;;;;19.69;91.05;93322.94;4985457;28;20050;-86
2021/06/07 11:00:08;;;;;;;6.65;3.65;;;;;;;19.63;92.17;93264.88;4985435;28;20136;-84
2021/06/07 11:03:23;;;;;;;5.35;3.33;;;;;;;19.81;89.19;93266.09;4987212;28;20104;-84
2021/06/07 11:06:07;;;;;;;5.32;3.70;;;;;;;19.72;90.61;93265.09;4989458;28;20100;-86
2021/06/07 11:08:36;;;;;;;6.00;3.47;;;;;;;20.63;89.87;93302.53;4989886;28;20046;-84
2021/06/07 11:11:07;;;;;;;5.45;3.78;;;;;;;20.46;86.28;93302.91;4972275;28;20047;-84
2021/06/07 11:13:46;;;;;;;5.88;4.43;;;;;;;21.18;89.69;93296.44;5008149;28;20073;-83
2021/06/07 11:16:26;;;;;;;6.18;4.15;;;;;;;21.18;86.54;93291.22;5009682;28;20054;-84
2021/06/07 11:18:57;;;;;;;8.27;4.97;;;;;;;21.33;84.95;93249.31;5009564;28;20128;-84
2021/06/07 11:21:27;;;;;;;5.10;4.28;;;;;;;21.27;77.41;93276.53;5007727;28;20383;-84
2021/06/07 11:23:54;;;;;;;5.55;3.35;;;;;;;21.76;77.11;93284.47;4970381;28;20502;-85
2021/06/07 11:26:22;;;;;;;5.72;4.28;;;;;;;22.44;76.98;93281.81;4970273;28;20054;-84
2021/06/07 11:28:51;;;;;;;6.57;4.40;;;;;;;23.04;74.76;93269.22;4984232;28;20541;-83
2021/06/07 11:31:53;;;;;;;5.47;3.60;;;;;;;23.62;73.40;93260.13;4990089;28;20046;-83
2021/06/07 11:34:47;;;;;;;5.47;3.75;;;;;;;24.21;69.17;93264.03;4989895;28;20225;-83
2021/06/07 11:37:32;;;;;;;4.60;3.20;;;;;;;24.54;67.22;93263.09;4993366;28;20050;-83
2021/06/07 11:39:59;;;;;;;5.35;3.65;;;;;;;24.64;66.87;93257.63;4993459;28;20047;-83
2021/06/07 11:42:28;;;;;;;4.57;2.95;;;;;;;24.39;67.49;93256.34;4993780;28;20043;-83